createdAt,value
2023-04-24T00:00:10.077Z,2.37
2023-04-24T00:02:39.797Z,2.47
2023-04-24T00:05:08.606Z,2.70
2023-04-24T00:07:36.819Z,2.20
2023-04-24T00:10:04.817Z,2.30
2023-04-24T00:12:33.840Z,2.37
2023-04-24T00:15:01.760Z,2.00
2023-04-24T00:17:29.535Z,1.80
2023-04-24T00:20:00.172Z,1.53
2023-04-24T00:22:28.404Z,1.30
2023-04-24T00:24:56.470Z,1.30
2023-04-24T00:27:24.215Z,1.40
2023-04-24T00:29:53.266Z,1.50
2023-04-24T00:32:21.044Z,1.30
2023-04-24T00:34:49.899Z,1.20
2023-04-24T00:37:17.643Z,1.20
2023-04-24T00:39:46.057Z,1.30
2023-04-24T00:42:14.155Z,1.37
2023-04-24T00:44:42.814Z,1.20
2023-04-24T00:47:13.028Z,0.90
2023-04-24T00:49:40.970Z,1.00
2023-04-24T00:52:09.891Z,0.90
2023-04-24T00:54:37.951Z,0.83
2023-04-24T00:57:06.212Z,0.97
2023-04-24T00:59:34.384Z,1.00
2023-04-24T01:02:02.179Z,0.90
2023-04-24T01:04:32.422Z,0.80
2023-04-24T01:07:00.114Z,1.00
2023-04-24T01:09:28.559Z,0.90
2023-04-24T01:11:57.628Z,0.80
2023-04-24T01:14:25.494Z,0.80
2023-04-24T01:16:53.179Z,1.00
2023-04-24T01:19:22.426Z,1.00
2023-04-24T01:21:55.431Z,0.73
2023-04-24T01:24:24.598Z,1.10
2023-04-24T01:26:52.375Z,1.03
2023-04-24T01:29:20.365Z,1.10
2023-04-24T01:31:48.120Z,1.00
2023-04-24T01:34:18.102Z,1.17
2023-04-24T01:36:47.726Z,1.00
2023-04-24T01:39:16.665Z,1.13
2023-04-24T01:41:54.051Z,1.40
2023-04-24T01:44:35.591Z,0.97
2023-04-24T01:47:44.522Z,1.10
2023-04-24T01:50:34.249Z,1.17
2023-04-24T01:53:15.824Z,2.00
2023-04-24T01:55:45.857Z,1.77
2023-04-24T02:02:19.529Z,1.23
2023-04-24T02:04:47.327Z,1.00
2023-04-24T02:07:15.042Z,0.80
2023-04-24T02:12:19.656Z,0.90
2023-04-24T02:14:47.374Z,0.83
2023-04-24T02:17:16.572Z,1.00
2023-04-24T02:22:26.644Z,0.90
2023-04-24T02:24:54.731Z,0.80
2023-04-24T02:27:22.776Z,0.90
2023-04-24T02:35:49.837Z,0.70
2023-04-24T02:38:18.984Z,0.73
2023-04-24T02:40:46.660Z,0.97
2023-04-24T02:43:14.438Z,0.90
2023-04-24T02:45:42.207Z,0.87
2023-04-24T02:48:10.262Z,0.80
2023-04-24T02:50:37.962Z,0.77
2023-04-24T02:53:05.771Z,0.83
2023-04-24T02:55:34.770Z,0.70
2023-04-24T02:58:02.502Z,1.10
2023-04-24T03:00:30.890Z,1.20
2023-04-24T03:02:58.858Z,1.20
2023-04-24T03:05:26.633Z,1.07
2023-04-24T03:07:54.624Z,1.17
2023-04-24T03:10:23.533Z,1.10
2023-04-24T03:12:52.642Z,1.40
2023-04-24T03:15:20.545Z,1.20
2023-04-24T03:17:49.042Z,1.10
2023-04-24T03:20:16.992Z,0.80
2023-04-24T03:22:45.028Z,1.40
2023-04-24T03:25:12.930Z,1.00
2023-04-24T03:27:41.186Z,1.03
2023-04-24T03:30:20.038Z,1.10
2023-04-24T03:32:53.445Z,1.00
2023-04-24T03:35:36.282Z,0.80
2023-04-24T03:38:11.443Z,0.87
2023-04-24T03:40:58.012Z,1.07
2023-04-24T03:43:36.819Z,0.80
2023-04-24T03:46:08.048Z,0.70
2023-04-24T03:48:39.802Z,0.70
2023-04-24T03:51:08.918Z,0.73
2023-04-24T03:53:38.229Z,0.90
2023-04-24T03:56:06.216Z,0.83
2023-04-24T03:58:34.854Z,0.80
2023-04-24T04:01:02.558Z,0.90
2023-04-24T04:03:51.966Z,1.00
2023-04-24T04:06:23.505Z,1.00
2023-04-24T04:08:52.893Z,0.87
2023-04-24T04:11:20.876Z,0.80
2023-04-24T04:13:49.083Z,0.70
2023-04-24T04:16:19.905Z,0.50
2023-04-24T04:18:49.707Z,0.80
2023-04-24T04:21:18.819Z,0.80
2023-04-24T04:23:46.654Z,0.50
2023-04-24T04:26:20.169Z,0.60
2023-04-24T04:29:08.446Z,0.70
2023-04-24T04:31:40.603Z,0.53
2023-04-24T04:34:12.559Z,0.47
2023-04-24T04:36:42.718Z,0.70
2023-04-24T04:39:30.993Z,0.70
2023-04-24T04:42:08.570Z,0.70
2023-04-24T04:44:40.999Z,0.90
2023-04-24T04:47:11.789Z,0.80
2023-04-24T04:49:39.729Z,0.70
2023-04-24T04:52:14.091Z,0.73
2023-04-24T04:54:41.894Z,0.73
2023-04-24T04:57:10.017Z,0.53
2023-04-24T04:59:38.219Z,0.73
2023-04-24T05:02:10.768Z,0.60
2023-04-24T05:04:39.022Z,0.50
2023-04-24T05:07:07.342Z,0.50
2023-04-24T05:09:38.947Z,0.53
2023-04-24T05:12:08.532Z,0.73
2023-04-24T05:14:42.903Z,0.57
2023-04-24T05:17:12.524Z,1.00
2023-04-24T05:19:40.590Z,0.70
2023-04-24T05:22:10.826Z,1.00
2023-04-24T05:24:48.090Z,0.90
2023-04-24T05:27:33.618Z,0.83
2023-04-24T05:30:02.215Z,0.80
2023-04-24T05:32:30.390Z,1.10
2023-04-24T05:34:58.106Z,1.20
2023-04-24T05:37:26.945Z,0.80
2023-04-24T05:39:56.068Z,1.00
2023-04-24T05:42:24.482Z,0.83
2023-04-24T05:44:53.692Z,0.80
2023-04-24T05:47:28.797Z,0.80
2023-04-24T05:50:03.597Z,1.10
2023-04-24T05:52:37.404Z,1.07
2023-04-24T05:55:14.583Z,1.20
2023-04-24T05:57:44.583Z,1.13
2023-04-24T06:00:14.543Z,1.00
2023-04-24T06:02:52.383Z,0.93
2023-04-24T06:05:24.172Z,1.10
2023-04-24T06:07:54.762Z,1.17
2023-04-24T06:10:26.509Z,0.90
2023-04-24T06:12:57.179Z,0.77
2023-04-24T06:15:24.838Z,1.00
2023-04-24T06:17:56.953Z,1.10
2023-04-24T06:20:24.993Z,0.80
2023-04-24T06:22:52.708Z,1.30
2023-04-24T06:25:20.611Z,1.10
2023-04-24T06:27:49.718Z,1.10
2023-04-24T06:30:17.610Z,1.33
2023-04-24T06:32:46.047Z,1.30
2023-04-24T06:35:13.746Z,1.30
2023-04-24T06:37:41.840Z,1.50
2023-04-24T06:40:10.452Z,1.20
2023-04-24T06:42:38.208Z,1.07
2023-04-24T06:45:18.824Z,0.97
2023-04-24T06:47:46.597Z,1.30
2023-04-24T06:50:14.409Z,1.70
2023-04-24T06:52:42.733Z,1.60
2023-04-24T06:55:12.053Z,1.10
2023-04-24T06:57:39.767Z,1.40
2023-04-24T07:00:10.360Z,1.10
2023-04-24T07:02:39.652Z,1.53
2023-04-24T07:05:09.386Z,1.30
2023-04-24T07:07:38.750Z,1.27
2023-04-24T07:10:07.574Z,1.20
2023-04-24T07:12:35.302Z,1.27
2023-04-24T07:15:03.011Z,1.50
2023-04-24T07:17:30.781Z,1.13
2023-04-24T07:19:59.807Z,1.00
2023-04-24T07:22:27.487Z,1.10
2023-04-24T07:24:55.194Z,1.17
2023-04-24T07:27:23.100Z,1.07
2023-04-24T07:29:50.984Z,1.03
2023-04-24T07:32:18.613Z,0.97
2023-04-24T07:34:46.408Z,1.07
2023-04-24T07:37:15.471Z,1.07
2023-04-24T07:39:55.265Z,1.07
2023-04-24T07:42:22.975Z,1.17
2023-04-24T07:44:50.717Z,0.93
2023-04-24T07:47:18.440Z,0.83
2023-04-24T07:49:46.154Z,1.00
2023-04-24T07:52:15.110Z,1.10
2023-04-24T07:54:44.179Z,1.00
2023-04-24T07:57:12.107Z,1.17
2023-04-24T07:59:39.772Z,1.10
2023-04-24T08:02:08.093Z,1.10
2023-04-24T08:04:36.006Z,1.10
2023-04-24T08:07:03.771Z,0.87
2023-04-24T08:09:32.898Z,0.90
2023-04-24T08:12:00.753Z,0.77
2023-04-24T08:14:28.406Z,0.90
2023-04-24T08:16:57.875Z,0.60
2023-04-24T08:19:29.461Z,1.00
2023-04-24T08:21:57.216Z,0.80
2023-04-24T08:24:25.168Z,1.00
2023-04-24T08:26:57.759Z,0.77
2023-04-24T08:29:25.572Z,0.80
2023-04-24T08:31:55.545Z,0.87
2023-04-24T08:34:24.426Z,1.10
2023-04-24T08:36:52.361Z,1.10
2023-04-24T08:39:20.174Z,0.83
2023-04-24T08:41:50.373Z,0.80
2023-04-24T08:44:21.436Z,0.90
2023-04-24T08:46:52.404Z,0.90
2023-04-24T08:49:21.060Z,0.70
2023-04-24T08:51:49.072Z,0.83
2023-04-24T08:54:16.931Z,0.80
2023-04-24T08:56:46.135Z,0.83
2023-04-24T08:59:14.368Z,0.70
2023-04-24T09:01:43.822Z,0.80
2023-04-24T09:04:13.986Z,0.70
2023-04-24T09:06:42.432Z,0.70
2023-04-24T09:09:12.653Z,0.93
2023-04-24T09:11:41.277Z,1.10
2023-04-24T09:14:11.069Z,0.83
2023-04-24T09:16:39.143Z,1.07
2023-04-24T09:19:08.276Z,0.77
2023-04-24T09:21:37.407Z,0.70
2023-04-24T09:24:08.119Z,0.60
2023-04-24T09:26:38.011Z,0.70
2023-04-24T09:29:06.374Z,0.63
2023-04-24T09:31:34.135Z,1.03
2023-04-24T09:34:05.776Z,0.80
2023-04-24T09:36:38.230Z,0.73
2023-04-24T09:39:09.070Z,0.70
2023-04-24T09:41:36.822Z,1.00
2023-04-24T09:44:14.486Z,0.70
2023-04-24T09:46:43.639Z,0.90
2023-04-24T09:49:14.760Z,0.70
2023-04-24T09:51:44.617Z,0.83
2023-04-24T09:54:18.017Z,0.63
2023-04-24T09:56:47.338Z,1.00
2023-04-24T09:59:15.370Z,0.87
2023-04-24T10:01:45.689Z,0.80
2023-04-24T10:04:21.663Z,0.80
2023-04-24T10:06:52.330Z,1.00
2023-04-24T10:09:21.975Z,0.83
2023-04-24T10:11:51.191Z,0.70
2023-04-24T10:14:21.618Z,0.70
2023-04-24T10:16:50.709Z,0.70
2023-04-24T10:19:19.651Z,0.80
2023-04-24T10:21:48.232Z,1.10
2023-04-24T10:24:18.990Z,0.93
2023-04-24T10:26:49.284Z,0.80
2023-04-24T10:29:18.796Z,0.87
2023-04-24T10:31:47.792Z,1.00
2023-04-24T10:34:17.616Z,1.10
2023-04-24T10:36:50.108Z,1.13
2023-04-24T10:39:20.516Z,1.13
2023-04-24T10:41:58.506Z,0.80
2023-04-24T10:44:26.487Z,0.80
2023-04-24T10:46:56.779Z,1.10
2023-04-24T10:49:30.830Z,1.30
2023-04-24T10:52:04.209Z,0.87
2023-04-24T10:54:37.515Z,0.90
2023-04-24T10:57:33.634Z,0.80
2023-04-24T11:00:20.302Z,0.90
2023-04-24T11:02:51.791Z,1.07
2023-04-24T11:05:20.999Z,1.07
2023-04-24T11:08:14.949Z,0.90
2023-04-24T11:10:46.427Z,0.73
2023-04-24T11:13:17.332Z,0.90
2023-04-24T11:15:45.037Z,0.87
2023-04-24T11:18:16.821Z,1.00
2023-04-24T11:20:45.298Z,1.00
2023-04-24T11:23:15.069Z,1.20
2023-04-24T11:25:44.772Z,1.00
2023-04-24T11:28:17.217Z,1.20
2023-04-24T11:30:44.882Z,1.10
2023-04-24T11:33:12.786Z,0.90
2023-04-24T11:38:51.749Z,0.90
2023-04-24T11:41:20.982Z,1.10
2023-04-24T11:43:49.947Z,1.00
2023-04-24T11:46:19.084Z,1.17
2023-04-24T11:48:47.596Z,1.20
2023-04-24T11:51:15.356Z,1.30
2023-04-24T11:53:43.607Z,1.20
2023-04-24T11:56:12.348Z,1.00
2023-04-24T11:58:41.483Z,1.10
2023-04-24T12:01:09.201Z,1.03
2023-04-24T12:03:37.062Z,1.17
2023-04-24T12:06:09.290Z,1.33
2023-04-24T12:08:38.567Z,1.10
2023-04-24T12:11:08.800Z,1.30
2023-04-24T12:13:37.291Z,1.00
2023-04-24T12:16:06.965Z,1.10
2023-04-24T12:18:34.890Z,1.40
2023-04-24T12:21:22.031Z,1.17
2023-04-24T12:23:51.820Z,1.30
2023-04-24T12:26:20.970Z,1.50
2023-04-24T12:28:50.687Z,1.00
2023-04-24T12:31:19.855Z,1.00
2023-04-24T12:33:47.619Z,1.03
2023-04-24T12:36:15.634Z,1.00
2023-04-24T12:38:47.440Z,0.87
2023-04-24T12:41:16.145Z,1.03
2023-04-24T12:43:53.925Z,0.90
2023-04-24T12:46:23.013Z,1.03
2023-04-24T12:48:51.842Z,1.30
2023-04-24T12:51:19.505Z,0.90
2023-04-24T12:53:56.597Z,1.20
2023-04-24T12:56:24.828Z,1.00
2023-04-24T12:58:53.089Z,1.20
2023-04-24T13:01:20.888Z,1.37
2023-04-24T13:03:54.164Z,1.03
2023-04-24T13:06:22.258Z,1.17
2023-04-24T13:08:49.961Z,1.20
2023-04-24T13:11:17.613Z,0.90
2023-04-24T13:13:45.658Z,1.07
2023-04-24T13:16:13.321Z,1.20
2023-04-24T13:18:43.838Z,1.10
2023-04-24T13:21:12.811Z,0.90
2023-04-24T13:23:40.669Z,1.10
2023-04-24T13:26:08.649Z,0.90
2023-04-24T13:28:36.352Z,0.87
2023-04-24T13:31:04.015Z,1.07
2023-04-24T13:33:31.717Z,1.10
2023-04-24T13:35:59.459Z,0.90
2023-04-24T13:38:28.457Z,0.90
2023-04-24T13:40:56.199Z,0.87
2023-04-24T13:43:24.067Z,1.00
2023-04-24T13:45:51.816Z,1.10
2023-04-24T13:48:19.481Z,0.73
2023-04-24T13:50:49.320Z,0.80
2023-04-24T13:53:17.054Z,1.10
2023-04-24T13:55:46.094Z,1.00
2023-04-24T13:58:13.855Z,1.07
2023-04-24T14:00:42.574Z,1.17
2023-04-24T14:03:10.319Z,1.03
2023-04-24T14:05:38.976Z,0.80
2023-04-24T14:08:07.355Z,1.10
2023-04-24T14:10:35.034Z,1.23
2023-04-24T14:13:04.067Z,1.10
2023-04-24T14:15:31.794Z,1.10
2023-04-24T14:17:59.483Z,0.80
2023-04-24T14:20:27.194Z,0.70
2023-04-24T14:22:54.917Z,0.90
2023-04-24T14:25:24.053Z,0.60
2023-04-24T14:27:51.750Z,0.90
2023-04-24T14:30:21.876Z,0.83
2023-04-24T14:32:50.717Z,0.60
2023-04-24T14:35:18.486Z,0.77
2023-04-24T14:37:47.448Z,0.47
2023-04-24T14:40:39.709Z,0.80
2023-04-24T14:43:03.970Z,0.70
2023-04-24T14:45:34.013Z,0.70
2023-04-24T14:48:01.797Z,0.70
2023-04-24T14:50:29.902Z,0.57
2023-04-24T14:52:58.481Z,0.50
2023-04-24T14:55:30.080Z,0.60
2023-04-24T14:57:58.022Z,0.47
2023-04-24T15:00:26.000Z,0.73
2023-04-24T15:02:56.363Z,0.80
2023-04-24T15:05:25.798Z,0.80
2023-04-24T15:07:53.757Z,0.60
2023-04-24T15:10:23.946Z,0.63
2023-04-24T15:12:52.353Z,0.70
2023-04-24T15:15:20.828Z,0.50
2023-04-24T15:17:48.545Z,0.60
2023-04-24T15:20:17.604Z,0.40
2023-04-24T15:22:45.545Z,0.40
2023-04-24T15:25:13.280Z,0.40
2023-04-24T15:27:45.028Z,0.27
2023-04-24T15:30:14.032Z,0.40
2023-04-24T15:32:41.906Z,0.30
2023-04-24T15:35:10.827Z,0.20
2023-04-24T15:37:43.086Z,0.20
2023-04-24T15:40:14.158Z,0.20
2023-04-24T15:42:43.086Z,0.40
2023-04-24T15:45:12.598Z,0.27
2023-04-24T15:47:40.687Z,0.40
2023-04-24T15:50:12.768Z,0.20
2023-04-24T15:52:43.490Z,0.27
2023-04-24T15:55:13.224Z,0.33
2023-04-24T15:57:41.400Z,0.30
2023-04-24T16:00:11.006Z,0.40
2023-04-24T16:02:42.912Z,0.17
2023-04-24T16:05:12.203Z,0.53
2023-04-24T16:07:44.750Z,0.20
2023-04-24T16:10:16.585Z,0.37
2023-04-24T16:12:44.742Z,0.33
2023-04-24T16:15:12.928Z,0.40
2023-04-24T16:17:40.792Z,0.43
2023-04-24T16:20:10.779Z,0.40
2023-04-24T16:22:40.499Z,0.50
2023-04-24T16:25:12.768Z,0.20
2023-04-24T16:27:40.593Z,0.30
2023-04-24T16:30:12.240Z,0.30
2023-04-24T16:32:39.982Z,0.20
2023-04-24T16:35:11.144Z,0.20
2023-04-24T16:37:39.038Z,0.30
2023-04-24T16:40:11.179Z,0.27
2023-04-24T16:42:42.414Z,0.40
2023-04-24T16:45:11.665Z,0.40
2023-04-24T16:47:39.429Z,0.40
2023-04-24T16:50:07.934Z,0.37
2023-04-24T16:52:36.160Z,0.40
2023-04-24T16:55:03.864Z,0.30
2023-04-24T16:57:32.868Z,0.40
2023-04-24T17:00:02.176Z,0.40
2023-04-24T17:02:34.496Z,0.40
2023-04-24T17:05:02.378Z,0.47
2023-04-24T17:07:31.038Z,0.40
2023-04-24T17:10:00.511Z,0.43
2023-04-24T17:12:28.665Z,0.40
2023-04-24T17:14:57.803Z,0.50
2023-04-24T17:17:26.461Z,0.63
2023-04-24T17:19:54.298Z,0.60
2023-04-24T17:22:22.074Z,0.60
2023-04-24T17:24:49.767Z,0.70
2023-04-24T17:27:17.508Z,0.80
2023-04-24T17:29:45.455Z,0.87
2023-04-24T17:32:14.496Z,0.90
2023-04-24T17:34:42.205Z,0.93
2023-04-24T17:37:09.963Z,0.80
2023-04-24T17:39:37.833Z,0.80
2023-04-24T17:42:05.762Z,1.00
2023-04-24T17:44:33.590Z,1.00
2023-04-24T17:47:01.268Z,1.10
2023-04-24T17:49:30.554Z,1.30
2023-04-24T17:51:58.202Z,1.40
2023-04-24T17:54:25.920Z,1.40
2023-04-24T17:56:53.895Z,1.40
2023-04-24T17:59:22.465Z,1.20
2023-04-24T18:01:50.473Z,1.20
2023-04-24T18:04:18.646Z,1.70
2023-04-24T18:06:48.477Z,1.67
2023-04-24T18:09:18.933Z,1.60
2023-04-24T18:11:46.706Z,1.60
2023-04-24T18:14:14.503Z,1.50
2023-04-24T18:16:42.190Z,1.40
2023-04-24T18:19:09.861Z,1.40
2023-04-24T18:21:37.549Z,1.40
2023-04-24T18:24:07.019Z,1.43
2023-04-24T18:26:34.709Z,1.57
2023-04-24T18:29:02.439Z,1.27
2023-04-24T18:31:32.536Z,1.37
2023-04-24T18:34:00.424Z,1.23
2023-04-24T18:36:29.811Z,1.40
2023-04-24T18:38:57.643Z,1.60
2023-04-24T18:41:26.643Z,1.60
2023-04-24T18:43:57.957Z,1.80
2023-04-24T18:46:25.902Z,1.50
2023-04-24T18:48:53.639Z,1.40
2023-04-24T18:51:21.345Z,1.53
2023-04-24T18:53:49.002Z,1.83
2023-04-24T18:56:16.810Z,1.87
2023-04-24T18:58:46.333Z,1.90
2023-04-24T19:01:14.290Z,1.90
2023-04-24T19:03:42.080Z,1.77
2023-04-24T19:06:09.838Z,1.90
2023-04-24T19:08:38.569Z,1.80
2023-04-24T19:11:06.463Z,1.80
2023-04-24T19:13:41.556Z,1.50
2023-04-24T19:16:20.392Z,1.60
2023-04-24T19:19:00.260Z,1.87
2023-04-24T19:21:32.120Z,1.70
2023-04-24T19:24:08.199Z,2.33
2023-04-24T19:26:45.102Z,2.47
2023-04-24T19:29:24.438Z,2.47
2023-04-24T19:32:06.227Z,2.57
2023-04-24T19:34:44.212Z,2.80
2023-04-24T19:37:17.787Z,2.50
2023-04-24T19:39:54.921Z,2.27
2023-04-24T19:42:42.686Z,2.73
2023-04-24T19:45:21.122Z,2.30
2023-04-24T19:47:59.260Z,2.23
2023-04-24T19:50:38.829Z,2.40
2023-04-24T19:53:13.121Z,2.73
2023-04-24T19:55:47.365Z,2.33
2023-04-24T19:58:23.148Z,1.80
2023-04-24T20:01:07.463Z,1.80
2023-04-24T20:03:41.434Z,2.00
2023-04-24T20:06:17.600Z,2.10
2023-04-24T20:08:53.998Z,1.70
2023-04-24T20:11:34.739Z,2.00
2023-04-24T20:14:06.649Z,2.00
2023-04-24T20:16:36.649Z,1.90
2023-04-24T20:19:11.116Z,2.20
2023-04-24T20:21:50.430Z,1.87
2023-04-24T20:24:28.145Z,2.00
2023-04-24T20:27:02.875Z,1.90
2023-04-24T20:29:35.461Z,2.10
2023-04-24T20:32:08.605Z,1.90
2023-04-24T20:34:47.008Z,1.90
2023-04-24T20:37:27.780Z,1.47
2023-04-24T20:40:14.449Z,1.93
2023-04-24T20:42:42.362Z,1.70
2023-04-24T20:45:11.319Z,1.80
2023-04-24T20:47:39.012Z,1.60
2023-04-24T20:50:09.464Z,1.70
2023-04-24T20:52:37.088Z,1.90
2023-04-24T20:55:05.540Z,1.90
2023-04-24T20:57:33.534Z,1.80
2023-04-24T21:00:01.204Z,1.80
2023-04-24T21:02:28.904Z,1.90
2023-04-24T21:04:56.614Z,2.10
2023-04-24T21:07:25.646Z,2.37
2023-04-24T21:09:53.371Z,2.60
2023-04-24T21:12:21.017Z,2.30
2023-04-24T21:14:50.935Z,2.00
2023-04-24T21:17:18.913Z,2.13
2023-04-24T21:19:46.560Z,1.77
2023-04-24T21:22:14.376Z,2.03
2023-04-24T21:24:43.352Z,1.80
2023-04-24T21:27:11.025Z,2.00
2023-04-24T21:29:38.814Z,2.30
2023-04-24T21:32:06.574Z,2.00
2023-04-24T21:34:34.294Z,1.80
2023-04-24T21:37:01.904Z,1.90
2023-04-24T21:39:29.616Z,1.70
2023-04-24T21:41:59.193Z,1.67
2023-04-24T21:44:27.632Z,1.97
2023-04-24T21:46:55.804Z,1.80
2023-04-24T21:49:23.518Z,1.70
2023-04-24T21:51:51.281Z,1.93
2023-04-24T21:54:20.520Z,1.87
2023-04-24T21:56:48.183Z,1.60
2023-04-24T21:59:17.668Z,1.60
2023-04-24T22:01:45.389Z,1.50
2023-04-24T22:04:13.287Z,1.67
2023-04-24T22:06:42.114Z,1.43
2023-04-24T22:09:10.985Z,1.50
2023-04-24T22:11:38.846Z,1.30
2023-04-24T22:14:07.157Z,1.33
2023-04-24T22:16:36.722Z,1.70
2023-04-24T22:19:05.174Z,1.70
2023-04-24T22:21:33.379Z,2.03
2023-04-24T22:24:01.172Z,1.60
2023-04-24T22:26:28.882Z,2.03
2023-04-24T22:28:56.556Z,1.83
2023-04-24T22:31:24.520Z,2.10
2023-04-24T22:33:53.727Z,2.00
2023-04-24T22:36:21.442Z,1.83
2023-04-24T22:38:52.860Z,2.00
2023-04-24T22:41:20.556Z,1.73
2023-04-24T22:43:48.516Z,1.67
2023-04-24T22:46:16.428Z,1.70
2023-04-24T22:48:44.051Z,1.50
2023-04-24T22:51:13.110Z,1.50
2023-04-24T22:53:41.037Z,2.07
2023-04-24T22:56:08.730Z,1.67
2023-04-24T22:58:36.381Z,1.57
2023-04-24T23:01:04.225Z,1.50
2023-04-24T23:03:33.163Z,1.40
2023-04-24T23:06:01.048Z,1.60
2023-04-24T23:08:30.682Z,1.60
2023-04-24T23:10:58.490Z,2.00
2023-04-24T23:13:27.207Z,2.30
2023-04-24T23:15:55.246Z,2.10
2023-04-24T23:18:23.053Z,2.30
2023-04-24T23:20:51.433Z,2.20
2023-04-24T23:23:19.059Z,1.90
2023-04-24T23:25:48.180Z,2.10
2023-04-24T23:28:15.808Z,2.10
2023-04-24T23:30:43.528Z,2.17
2023-04-24T23:33:11.798Z,2.40
2023-04-24T23:35:39.588Z,2.13
2023-04-24T23:38:10.225Z,2.07
2023-04-24T23:40:38.385Z,2.30
2023-04-24T23:43:08.839Z,2.07
2023-04-24T23:45:37.116Z,2.03
2023-04-24T23:48:05.904Z,2.00
2023-04-24T23:50:33.725Z,2.60
2023-04-24T23:53:01.393Z,2.57
2023-04-24T23:55:29.113Z,2.30
2023-04-24T23:57:56.788Z,2.13
